createdAt,value
2022-07-29T00:00:38.384Z,1008.18
2022-07-29T00:01:38.365Z,1008.17
2022-07-29T00:02:38.385Z,1008.16
2022-07-29T00:03:38.394Z,1008.15
2022-07-29T00:04:38.403Z,1008.14
2022-07-29T00:05:38.328Z,1008.10
2022-07-29T00:06:38.316Z,1008.12
2022-07-29T00:07:38.305Z,1008.15
2022-07-29T00:08:38.306Z,1008.15
2022-07-29T00:09:43.023Z,1008.18
2022-07-29T00:10:39.267Z,1008.17
2022-07-29T00:11:38.256Z,1008.14
2022-07-29T00:12:38.269Z,1008.13
2022-07-29T00:13:38.247Z,1008.13
2022-07-29T00:14:38.228Z,1008.15
2022-07-29T00:15:38.208Z,1008.13
2022-07-29T00:16:38.349Z,1008.14
2022-07-29T00:17:38.188Z,1008.12
2022-07-29T00:18:38.195Z,1008.13
2022-07-29T00:19:39.009Z,1008.11
2022-07-29T00:20:38.160Z,1008.11
2022-07-29T00:21:38.139Z,1008.10
2022-07-29T00:22:38.159Z,1008.06
2022-07-29T00:23:38.129Z,1008.03
2022-07-29T00:24:38.111Z,1008.04
2022-07-29T00:25:38.102Z,1008.03
2022-07-29T00:26:38.091Z,1008.03
2022-07-29T00:27:38.081Z,1008.01
2022-07-29T00:28:38.072Z,1007.99
2022-07-29T00:29:38.054Z,1007.98
2022-07-29T00:30:38.071Z,1007.97
2022-07-29T00:31:38.126Z,1007.95
2022-07-29T00:32:38.043Z,1007.92
2022-07-29T00:33:38.012Z,1007.93
2022-07-29T00:34:38.003Z,1007.95
2022-07-29T00:35:37.994Z,1007.94
2022-07-29T00:36:37.987Z,1007.93
2022-07-29T00:37:37.986Z,1007.93
2022-07-29T00:38:37.965Z,1007.91
2022-07-29T00:39:37.946Z,1007.90
2022-07-29T00:40:37.945Z,1007.91
2022-07-29T00:41:38.930Z,1007.90
2022-07-29T00:42:37.939Z,1007.89
2022-07-29T00:43:37.896Z,1007.85
2022-07-29T00:44:37.896Z,1007.84
2022-07-29T00:45:37.878Z,1007.85
2022-07-29T00:46:37.964Z,1007.85
2022-07-29T00:47:37.878Z,1007.81
2022-07-29T00:48:37.873Z,1007.83
2022-07-29T00:49:37.837Z,1007.78
2022-07-29T00:50:37.835Z,1007.78
2022-07-29T00:51:37.808Z,1007.75
2022-07-29T00:52:37.819Z,1007.78
2022-07-29T00:53:37.788Z,1007.74
2022-07-29T00:54:44.517Z,1007.73
2022-07-29T00:55:38.773Z,1007.70
2022-07-29T00:56:37.759Z,1007.68
2022-07-29T00:57:37.758Z,1007.70
2022-07-29T00:58:37.747Z,1007.72
2022-07-29T00:59:37.730Z,1007.68
2022-07-29T01:00:37.757Z,1007.70
2022-07-29T01:01:37.767Z,1007.65
2022-07-29T01:02:38.010Z,1007.63
2022-07-29T01:03:37.701Z,1007.61
2022-07-29T01:04:37.695Z,1007.55
2022-07-29T01:05:50.976Z,1007.58
2022-07-29T01:06:38.653Z,1007.55
2022-07-29T01:07:37.653Z,1007.57
2022-07-29T01:08:37.632Z,1007.53
2022-07-29T01:09:45.542Z,1007.54
2022-07-29T01:10:38.614Z,1007.56
2022-07-29T01:11:37.595Z,1007.53
2022-07-29T01:12:37.601Z,1007.49
2022-07-29T01:13:37.577Z,1007.47
2022-07-29T01:14:37.567Z,1007.47
2022-07-29T01:15:37.554Z,1007.45
2022-07-29T01:16:38.610Z,1007.49
2022-07-29T01:17:37.557Z,1007.50
2022-07-29T01:18:37.524Z,1007.47
2022-07-29T01:19:37.516Z,1007.47
2022-07-29T01:20:37.511Z,1007.47
2022-07-29T01:21:37.488Z,1007.49
2022-07-29T01:22:37.489Z,1007.48
2022-07-29T01:23:37.478Z,1007.50
2022-07-29T01:24:37.459Z,1007.51
2022-07-29T01:25:37.457Z,1007.48
2022-07-29T01:26:37.442Z,1007.48
2022-07-29T01:27:37.439Z,1007.51
2022-07-29T01:28:37.420Z,1007.48
2022-07-29T01:29:40.357Z,1007.51
2022-07-29T01:30:37.394Z,1007.47
2022-07-29T01:31:38.553Z,1007.45
2022-07-29T01:32:38.395Z,1007.42
2022-07-29T01:33:37.361Z,1007.43
2022-07-29T01:34:37.361Z,1007.44
2022-07-29T01:35:37.353Z,1007.42
2022-07-29T01:36:37.329Z,1007.42
2022-07-29T01:37:37.353Z,1007.40
2022-07-29T01:38:37.331Z,1007.39
2022-07-29T01:39:37.294Z,1007.40
2022-07-29T01:40:37.283Z,1007.39
2022-07-29T01:41:37.282Z,1007.38
2022-07-29T01:42:37.264Z,1007.37
2022-07-29T01:43:37.255Z,1007.32
2022-07-29T01:44:37.259Z,1007.34
2022-07-29T01:45:37.234Z,1007.36
2022-07-29T01:46:37.262Z,1007.33
2022-07-29T01:47:37.224Z,1007.34
2022-07-29T01:48:37.237Z,1007.33
2022-07-29T01:49:37.196Z,1007.33
2022-07-29T01:50:37.183Z,1007.32
2022-07-29T01:51:37.167Z,1007.35
2022-07-29T01:52:37.158Z,1007.37
2022-07-29T01:53:38.254Z,1007.34
2022-07-29T01:54:37.127Z,1007.35
2022-07-29T01:55:37.126Z,1007.38
2022-07-29T01:56:37.121Z,1007.35
2022-07-29T01:57:37.107Z,1007.30
2022-07-29T01:58:37.109Z,1007.29
2022-07-29T01:59:37.087Z,1007.28
2022-07-29T02:00:37.073Z,1007.28
2022-07-29T02:01:37.120Z,1007.26
2022-07-29T02:02:37.037Z,1007.22
2022-07-29T02:03:37.039Z,1007.22
2022-07-29T02:04:37.040Z,1007.20
2022-07-29T02:05:37.019Z,1007.28
2022-07-29T02:06:37.002Z,1007.22
2022-07-29T02:07:37.000Z,1007.17
2022-07-29T02:08:36.995Z,1007.18
2022-07-29T02:09:36.973Z,1007.20
2022-07-29T02:10:36.984Z,1007.19
2022-07-29T02:11:36.954Z,1007.21
2022-07-29T02:12:36.930Z,1007.17
2022-07-29T02:13:36.942Z,1007.16
2022-07-29T02:14:36.923Z,1007.21
2022-07-29T02:15:36.904Z,1007.21
2022-07-29T02:16:36.946Z,1007.23
2022-07-29T02:17:38.853Z,1007.21
2022-07-29T02:18:36.895Z,1007.24
2022-07-29T02:19:36.873Z,1007.26
2022-07-29T02:20:36.846Z,1007.24
2022-07-29T02:21:36.834Z,1007.27
2022-07-29T02:22:36.825Z,1007.22
2022-07-29T02:23:50.940Z,1007.22
2022-07-29T02:24:37.804Z,1007.20
2022-07-29T02:25:38.377Z,1007.16
2022-07-29T02:26:36.786Z,1007.12
2022-07-29T02:27:36.766Z,1007.17
2022-07-29T02:28:36.787Z,1007.13
2022-07-29T02:29:36.748Z,1007.14
2022-07-29T02:30:36.738Z,1007.13
2022-07-29T02:31:36.842Z,1007.17
2022-07-29T02:32:36.726Z,1007.12
2022-07-29T02:33:36.718Z,1007.26
2022-07-29T02:34:36.716Z,1007.25
2022-07-29T02:35:36.706Z,1007.26
2022-07-29T02:36:36.680Z,1007.28
2022-07-29T02:37:36.660Z,1007.30
2022-07-29T02:38:36.670Z,1007.26
2022-07-29T02:39:36.649Z,1007.29
2022-07-29T02:40:36.639Z,1007.27
2022-07-29T02:41:36.618Z,1007.27
2022-07-29T02:42:36.609Z,1007.26
2022-07-29T02:43:36.612Z,1007.26
2022-07-29T02:44:36.592Z,1007.23
2022-07-29T02:45:36.570Z,1007.24
2022-07-29T02:46:36.636Z,1007.25
2022-07-29T02:47:41.647Z,1007.21
2022-07-29T02:48:37.584Z,1007.23
2022-07-29T02:49:36.540Z,1007.23
2022-07-29T02:50:36.530Z,1007.26
2022-07-29T02:51:43.929Z,1007.25
2022-07-29T02:52:37.503Z,1007.28
2022-07-29T02:53:36.493Z,1007.26
2022-07-29T02:54:36.484Z,1007.28
2022-07-29T02:55:36.463Z,1007.34
2022-07-29T02:56:36.471Z,1007.35
2022-07-29T02:57:54.865Z,1007.36
2022-07-29T02:58:37.453Z,1007.38
2022-07-29T02:59:36.424Z,1007.44
2022-07-29T03:00:36.415Z,1007.42
2022-07-29T03:01:36.407Z,1007.43
2022-07-29T03:02:36.412Z,1007.43
2022-07-29T03:03:36.387Z,1007.46
2022-07-29T03:04:36.396Z,1007.40
2022-07-29T03:05:36.365Z,1007.38
2022-07-29T03:06:38.877Z,1007.41
2022-07-29T03:07:36.336Z,1007.38
2022-07-29T03:08:36.352Z,1007.39
2022-07-29T03:09:36.308Z,1007.40
2022-07-29T03:10:36.307Z,1007.42
2022-07-29T03:11:41.498Z,1007.43
2022-07-29T03:12:37.277Z,1007.41
2022-07-29T03:13:36.288Z,1007.39
2022-07-29T03:14:36.266Z,1007.41
2022-07-29T03:15:36.326Z,1007.40
2022-07-29T03:16:41.007Z,1007.40
2022-07-29T03:17:37.229Z,1007.42
2022-07-29T03:18:36.230Z,1007.42
2022-07-29T03:19:36.210Z,1007.41
2022-07-29T03:20:36.199Z,1007.44
2022-07-29T03:21:36.181Z,1007.43
2022-07-29T03:22:36.181Z,1007.44
2022-07-29T03:23:36.869Z,1007.44
2022-07-29T03:24:36.151Z,1007.48
2022-07-29T03:25:36.150Z,1007.47
2022-07-29T03:26:36.143Z,1007.47
2022-07-29T03:27:36.112Z,1007.48
2022-07-29T03:28:36.131Z,1007.46
2022-07-29T03:29:36.092Z,1007.45
2022-07-29T03:30:36.094Z,1007.47
2022-07-29T03:31:36.129Z,1007.47
2022-07-29T03:32:36.074Z,1007.48
2022-07-29T03:33:36.070Z,1007.50
2022-07-29T03:34:36.045Z,1007.47
2022-07-29T03:35:36.044Z,1007.50
2022-07-29T03:36:36.024Z,1007.49
2022-07-29T03:37:36.013Z,1007.51
2022-07-29T03:38:36.015Z,1007.46
2022-07-29T03:39:35.991Z,1007.44
2022-07-29T03:40:35.984Z,1007.47
2022-07-29T03:41:35.974Z,1007.45
2022-07-29T03:42:35.964Z,1007.46
2022-07-29T03:43:35.964Z,1007.44
2022-07-29T03:44:35.946Z,1007.40
2022-07-29T03:45:35.918Z,1007.41
2022-07-29T03:46:35.951Z,1007.43
2022-07-29T03:47:49.992Z,1007.44
2022-07-29T03:48:36.943Z,1007.44
2022-07-29T03:49:35.886Z,1007.48
2022-07-29T03:50:35.878Z,1007.46
2022-07-29T03:51:35.867Z,1007.46
2022-07-29T03:52:35.849Z,1007.47
2022-07-29T03:53:35.851Z,1007.47
2022-07-29T03:54:35.841Z,1007.46
2022-07-29T03:55:35.820Z,1007.44
2022-07-29T03:56:35.821Z,1007.42
2022-07-29T03:57:35.791Z,1007.43
2022-07-29T03:58:35.790Z,1007.42
2022-07-29T03:59:35.790Z,1007.40
2022-07-29T04:00:35.767Z,1007.38
2022-07-29T04:01:35.865Z,1007.39
2022-07-29T04:02:35.761Z,1007.36
2022-07-29T04:03:35.793Z,1007.38
2022-07-29T04:04:35.752Z,1007.37
2022-07-29T04:05:35.702Z,1007.38
2022-07-29T04:06:35.711Z,1007.35
2022-07-29T04:07:35.682Z,1007.37
2022-07-29T04:08:35.693Z,1007.40
2022-07-29T04:09:35.692Z,1007.40
2022-07-29T04:10:35.848Z,1007.39
2022-07-29T04:12:01.339Z,1007.39
2022-07-29T04:12:36.643Z,1007.44
2022-07-29T04:13:35.622Z,1007.44
2022-07-29T04:14:35.649Z,1007.44
2022-07-29T04:15:35.632Z,1007.48
2022-07-29T04:16:35.677Z,1007.47
2022-07-29T04:17:35.602Z,1007.49
2022-07-29T04:18:35.586Z,1007.54
2022-07-29T04:19:35.583Z,1007.53
2022-07-29T04:20:35.555Z,1007.54
2022-07-29T04:21:35.548Z,1007.58
2022-07-29T04:22:35.544Z,1007.59
2022-07-29T04:23:35.526Z,1007.59
2022-07-29T04:24:36.507Z,1007.54
2022-07-29T04:25:35.485Z,1007.61
2022-07-29T04:26:35.480Z,1007.62
2022-07-29T04:27:35.466Z,1007.60
2022-07-29T04:28:35.456Z,1007.63
2022-07-29T04:29:35.468Z,1007.63
2022-07-29T04:30:35.449Z,1007.64
2022-07-29T04:31:35.505Z,1007.66
2022-07-29T04:32:35.431Z,1007.70
2022-07-29T04:33:35.408Z,1007.68
2022-07-29T04:34:35.409Z,1007.73
2022-07-29T04:35:38.070Z,1007.71
2022-07-29T04:36:35.369Z,1007.71
2022-07-29T04:37:35.356Z,1007.72
2022-07-29T04:38:35.352Z,1007.70
2022-07-29T04:39:35.368Z,1007.67
2022-07-29T04:40:35.340Z,1007.68
2022-07-29T04:41:35.332Z,1007.68
2022-07-29T04:42:35.309Z,1007.68
2022-07-29T04:43:36.950Z,1007.71
2022-07-29T04:44:39.533Z,1007.71
2022-07-29T04:45:35.270Z,1007.70
2022-07-29T04:46:35.395Z,1007.78
2022-07-29T04:47:35.251Z,1007.79
2022-07-29T04:48:35.243Z,1007.76
2022-07-29T04:49:35.233Z,1007.81
2022-07-29T04:50:35.236Z,1007.85
2022-07-29T04:51:35.203Z,1007.84
2022-07-29T04:52:35.205Z,1007.88
2022-07-29T04:53:35.194Z,1007.85
2022-07-29T04:54:35.184Z,1007.85
2022-07-29T04:55:35.185Z,1007.87
2022-07-29T04:56:35.163Z,1007.85
2022-07-29T04:57:35.145Z,1007.94
2022-07-29T04:58:35.137Z,1007.92
2022-07-29T04:59:35.175Z,1007.92
2022-07-29T05:00:35.134Z,1007.91
2022-07-29T05:01:35.143Z,1007.90
2022-07-29T05:02:35.168Z,1007.93
2022-07-29T05:03:35.077Z,1007.95
2022-07-29T05:04:35.086Z,1007.88
2022-07-29T05:05:35.068Z,1007.92
2022-07-29T05:06:35.058Z,1007.88
2022-07-29T05:07:35.048Z,1007.93
2022-07-29T05:08:35.039Z,1007.94
2022-07-29T05:09:35.020Z,1007.94
2022-07-29T05:10:35.027Z,1007.96
2022-07-29T05:11:35.000Z,1007.89
2022-07-29T05:12:34.986Z,1007.90
2022-07-29T05:13:45.294Z,1007.94
2022-07-29T05:14:35.959Z,1007.91
2022-07-29T05:15:35.020Z,1007.96
2022-07-29T05:16:34.960Z,1007.94
2022-07-29T05:17:34.932Z,1007.98
2022-07-29T05:18:34.937Z,1008.01
2022-07-29T05:19:34.911Z,1008.02
2022-07-29T05:20:34.912Z,1007.99
2022-07-29T05:21:34.906Z,1007.99
2022-07-29T05:22:34.892Z,1008.02
2022-07-29T05:23:34.875Z,1008.03
2022-07-29T05:24:34.872Z,1008.09
2022-07-29T05:25:43.652Z,1008.11
2022-07-29T05:26:35.832Z,1008.08
2022-07-29T05:27:34.825Z,1008.08
2022-07-29T05:28:34.824Z,1008.05
2022-07-29T05:29:43.312Z,1008.07
2022-07-29T05:30:35.820Z,1008.09
2022-07-29T05:31:34.785Z,1008.14
2022-07-29T05:32:34.775Z,1008.10
2022-07-29T05:33:37.062Z,1008.13
2022-07-29T05:34:34.746Z,1008.16
2022-07-29T05:35:34.746Z,1008.18
2022-07-29T05:36:34.726Z,1008.17
2022-07-29T05:37:34.719Z,1008.25
2022-07-29T05:38:34.713Z,1008.25
2022-07-29T05:39:47.603Z,1008.30
2022-07-29T05:40:35.702Z,1008.31
2022-07-29T05:41:34.687Z,1008.31
2022-07-29T05:42:34.658Z,1008.33
2022-07-29T05:43:34.665Z,1008.36
2022-07-29T05:44:34.642Z,1008.39
2022-07-29T05:45:34.658Z,1008.39
2022-07-29T05:46:35.683Z,1008.45
2022-07-29T05:47:34.609Z,1008.46
2022-07-29T05:48:34.590Z,1008.52
2022-07-29T05:49:34.615Z,1008.58
2022-07-29T05:50:34.571Z,1008.55
2022-07-29T05:51:34.565Z,1008.57
2022-07-29T05:52:34.551Z,1008.55
2022-07-29T05:53:34.543Z,1008.59
2022-07-29T05:54:34.533Z,1008.55
2022-07-29T05:55:34.517Z,1008.60
2022-07-29T05:56:34.520Z,1008.56
2022-07-29T05:57:34.530Z,1008.54
2022-07-29T05:58:34.492Z,1008.56
2022-07-29T05:59:34.474Z,1008.61
2022-07-29T06:00:34.557Z,1008.61
2022-07-29T06:01:34.530Z,1008.58
2022-07-29T06:02:34.458Z,1008.60
2022-07-29T06:03:34.427Z,1008.61
2022-07-29T06:04:34.600Z,1008.65
2022-07-29T06:05:34.415Z,1008.63
2022-07-29T06:06:34.409Z,1008.67
2022-07-29T06:07:34.396Z,1008.73
2022-07-29T06:08:34.398Z,1008.78
2022-07-29T06:09:36.193Z,1008.76
2022-07-29T06:10:34.376Z,1008.81
2022-07-29T06:11:34.362Z,1008.81
2022-07-29T06:12:34.339Z,1008.74
2022-07-29T06:13:34.333Z,1008.72
2022-07-29T06:14:34.321Z,1008.73
2022-07-29T06:15:34.441Z,1008.75
2022-07-29T06:16:34.384Z,1008.77
2022-07-29T06:17:34.281Z,1008.79
2022-07-29T06:18:34.280Z,1008.77
2022-07-29T06:19:34.262Z,1008.72
2022-07-29T06:20:34.282Z,1008.73
2022-07-29T06:21:34.243Z,1008.74
2022-07-29T06:22:34.233Z,1008.71
2022-07-29T06:23:34.215Z,1008.71
2022-07-29T06:24:34.204Z,1008.68
2022-07-29T06:25:34.194Z,1008.71
2022-07-29T06:26:39.216Z,1008.76
2022-07-29T06:27:35.175Z,1008.81
2022-07-29T06:28:34.166Z,1008.73
2022-07-29T06:29:34.147Z,1008.75
2022-07-29T06:30:34.208Z,1008.73
2022-07-29T06:31:34.137Z,1008.72
2022-07-29T06:32:34.118Z,1008.74
2022-07-29T06:33:34.106Z,1008.74
2022-07-29T06:34:34.106Z,1008.79
2022-07-29T06:35:41.515Z,1008.75
2022-07-29T06:36:35.088Z,1008.67
2022-07-29T06:37:34.070Z,1008.62
2022-07-29T06:38:37.422Z,1008.66
2022-07-29T06:39:35.040Z,1008.64
2022-07-29T06:40:34.049Z,1008.62
2022-07-29T06:41:34.046Z,1008.58
2022-07-29T06:42:34.010Z,1008.59
2022-07-29T06:43:34.000Z,1008.62
2022-07-29T06:44:33.993Z,1008.63
2022-07-29T06:45:33.981Z,1008.68
2022-07-29T06:46:34.033Z,1008.69
2022-07-29T06:47:33.962Z,1008.68
2022-07-29T06:48:33.962Z,1008.71
2022-07-29T06:49:33.982Z,1008.71
2022-07-29T06:50:33.934Z,1008.73
2022-07-29T06:51:33.914Z,1008.73
2022-07-29T06:52:33.923Z,1008.71
2022-07-29T06:53:33.899Z,1008.65
2022-07-29T06:54:33.906Z,1008.64
2022-07-29T06:55:33.866Z,1008.61
2022-07-29T06:56:39.407Z,1008.59
2022-07-29T06:57:34.865Z,1008.60
2022-07-29T06:58:33.847Z,1008.63
2022-07-29T06:59:36.025Z,1008.63
2022-07-29T07:00:33.818Z,1008.62
2022-07-29T07:01:33.843Z,1008.63
2022-07-29T07:02:34.058Z,1008.63
2022-07-29T07:03:33.788Z,1008.66
2022-07-29T07:04:33.779Z,1008.59
2022-07-29T07:05:33.759Z,1008.54
2022-07-29T07:06:33.761Z,1008.50
2022-07-29T07:07:33.752Z,1008.50
2022-07-29T07:08:33.741Z,1008.52
2022-07-29T07:09:40.170Z,1008.52
2022-07-29T07:10:34.712Z,1008.57
2022-07-29T07:11:33.701Z,1008.60
2022-07-29T07:12:33.703Z,1008.63
2022-07-29T07:13:33.691Z,1008.67
2022-07-29T07:14:33.673Z,1008.63
2022-07-29T07:15:39.566Z,1008.66
2022-07-29T07:16:34.788Z,1008.67
2022-07-29T07:17:33.645Z,1008.64
2022-07-29T07:18:33.633Z,1008.64
2022-07-29T07:19:33.615Z,1008.62
2022-07-29T07:20:33.616Z,1008.63
2022-07-29T07:21:33.595Z,1008.70
2022-07-29T07:22:38.622Z,1008.72
2022-07-29T07:23:34.665Z,1008.76
2022-07-29T07:24:33.565Z,1008.79
2022-07-29T07:25:33.557Z,1008.79
2022-07-29T07:26:33.578Z,1008.83
2022-07-29T07:27:33.529Z,1008.83
2022-07-29T07:28:33.529Z,1008.84
2022-07-29T07:29:33.510Z,1008.83
2022-07-29T07:30:33.512Z,1008.73
2022-07-29T07:31:33.571Z,1008.80
2022-07-29T07:32:33.499Z,1008.75
2022-07-29T07:33:33.502Z,1008.77
2022-07-29T07:34:33.452Z,1008.75
2022-07-29T07:35:33.451Z,1008.80
2022-07-29T07:36:33.696Z,1008.77
2022-07-29T07:37:33.424Z,1008.79
2022-07-29T07:38:33.412Z,1008.79
2022-07-29T07:39:33.422Z,1008.79
2022-07-29T07:40:33.393Z,1008.76
2022-07-29T07:41:33.397Z,1008.78
2022-07-29T07:42:33.383Z,1008.80
2022-07-29T07:43:33.370Z,1008.74
2022-07-29T07:44:39.051Z,1008.73
2022-07-29T07:45:34.367Z,1008.73
2022-07-29T07:46:33.340Z,1008.73
2022-07-29T07:47:34.234Z,1008.72
2022-07-29T07:48:33.307Z,1008.74
2022-07-29T07:49:33.288Z,1008.76
2022-07-29T07:50:33.318Z,1008.75
2022-07-29T07:51:33.308Z,1008.75
2022-07-29T07:52:33.268Z,1008.79
2022-07-29T07:53:33.261Z,1008.77
2022-07-29T07:54:33.247Z,1008.79
2022-07-29T07:55:53.509Z,1008.75
2022-07-29T07:56:35.438Z,1008.68
2022-07-29T07:57:33.199Z,1008.66
2022-07-29T07:58:33.201Z,1008.68
2022-07-29T07:59:33.190Z,1008.65
2022-07-29T08:00:33.190Z,1008.64
2022-07-29T08:01:47.980Z,1008.66
2022-07-29T08:02:34.227Z,1008.64
2022-07-29T08:03:33.146Z,1008.67
2022-07-29T08:04:33.149Z,1008.67
2022-07-29T08:05:33.139Z,1008.64
2022-07-29T08:06:33.126Z,1008.63
2022-07-29T08:07:33.113Z,1008.69
2022-07-29T08:08:33.099Z,1008.68
2022-07-29T08:09:33.075Z,1008.67
2022-07-29T08:10:33.090Z,1008.67
2022-07-29T08:11:34.001Z,1008.70
2022-07-29T08:12:33.067Z,1008.70
2022-07-29T08:13:33.037Z,1008.70
2022-07-29T08:14:33.035Z,1008.65
2022-07-29T08:15:33.009Z,1008.67
2022-07-29T08:16:33.073Z,1008.68
2022-07-29T08:17:35.233Z,1008.67
2022-07-29T08:18:32.989Z,1008.64
2022-07-29T08:19:32.981Z,1008.62
2022-07-29T08:20:32.968Z,1008.67
2022-07-29T08:21:32.960Z,1008.66
2022-07-29T08:22:32.971Z,1008.65
2022-07-29T08:23:47.047Z,1008.66
2022-07-29T08:24:33.924Z,1008.64
2022-07-29T08:25:32.922Z,1008.65
2022-07-29T08:26:32.902Z,1008.68
2022-07-29T08:27:43.328Z,1008.68
2022-07-29T08:28:33.883Z,1008.64
2022-07-29T08:29:32.873Z,1008.62
2022-07-29T08:30:32.854Z,1008.67
2022-07-29T08:31:32.858Z,1008.62
2022-07-29T08:32:52.537Z,1008.62
2022-07-29T08:33:33.826Z,1008.60
2022-07-29T08:34:32.817Z,1008.63
2022-07-29T08:35:35.740Z,1008.62
2022-07-29T08:36:32.798Z,1008.61
2022-07-29T08:37:32.798Z,1008.58
2022-07-29T08:38:32.779Z,1008.57
2022-07-29T08:39:32.768Z,1008.62
2022-07-29T08:40:32.911Z,1008.61
2022-07-29T08:41:32.750Z,1008.60
2022-07-29T08:42:32.747Z,1008.57
2022-07-29T08:43:32.720Z,1008.62
2022-07-29T08:44:32.712Z,1008.64
2022-07-29T08:45:32.748Z,1008.60
2022-07-29T08:46:32.701Z,1008.58
2022-07-29T08:47:32.705Z,1008.57
2022-07-29T08:48:32.663Z,1008.56
2022-07-29T08:49:32.672Z,1008.55
2022-07-29T08:50:32.645Z,1008.61
2022-07-29T08:51:32.642Z,1008.63
2022-07-29T08:52:32.645Z,1008.71
2022-07-29T08:53:32.632Z,1008.79
2022-07-29T08:54:32.606Z,1008.76
2022-07-29T08:55:32.596Z,1008.74
2022-07-29T08:56:32.637Z,1008.79
2022-07-29T08:57:32.596Z,1008.83
2022-07-29T08:58:32.568Z,1008.79
2022-07-29T08:59:32.558Z,1008.82
2022-07-29T09:00:32.543Z,1008.81
2022-07-29T09:01:35.606Z,1008.84
2022-07-29T09:02:32.520Z,1008.79
2022-07-29T09:03:32.630Z,1008.74
2022-07-29T09:04:32.511Z,1008.72
2022-07-29T09:05:35.770Z,1008.75
2022-07-29T09:06:33.481Z,1008.68
2022-07-29T09:07:34.641Z,1008.68
2022-07-29T09:08:32.486Z,1008.72
2022-07-29T09:09:32.455Z,1008.72
2022-07-29T09:10:32.445Z,1008.70
2022-07-29T09:11:32.445Z,1008.69
2022-07-29T09:12:37.584Z,1008.74
2022-07-29T09:13:33.433Z,1008.59
2022-07-29T09:14:32.428Z,1008.68
2022-07-29T09:15:32.406Z,1008.56
2022-07-29T09:16:52.263Z,1008.62
2022-07-29T09:17:33.401Z,1008.63
2022-07-29T09:18:32.377Z,1008.70
2022-07-29T09:19:32.358Z,1008.64
2022-07-29T09:20:32.350Z,1008.63
2022-07-29T09:21:32.339Z,1008.56
2022-07-29T09:22:32.330Z,1008.53
2022-07-29T09:23:32.340Z,1008.49
2022-07-29T09:24:32.308Z,1008.51
2022-07-29T09:25:32.311Z,1008.50
2022-07-29T09:26:32.293Z,1008.47
2022-07-29T09:27:32.285Z,1008.45
2022-07-29T09:28:32.285Z,1008.42
2022-07-29T09:29:36.116Z,1008.45
2022-07-29T09:30:32.312Z,1008.64
2022-07-29T09:31:32.290Z,1008.50
2022-07-29T09:32:32.229Z,1008.60
2022-07-29T09:33:32.236Z,1008.61
2022-07-29T09:34:32.225Z,1008.63
2022-07-29T09:35:32.222Z,1008.65
2022-07-29T09:36:32.187Z,1008.69
2022-07-29T09:37:32.189Z,1008.64
2022-07-29T09:38:32.187Z,1008.65
2022-07-29T09:39:32.169Z,1008.72
2022-07-29T09:40:32.160Z,1008.65
2022-07-29T09:41:32.152Z,1008.61
2022-07-29T09:42:32.141Z,1008.53
2022-07-29T09:43:32.152Z,1008.59
2022-07-29T09:44:32.123Z,1008.55
2022-07-29T09:45:32.112Z,1008.61
2022-07-29T09:46:32.147Z,1008.61
2022-07-29T09:47:32.100Z,1008.60
2022-07-29T09:48:32.102Z,1008.61
2022-07-29T09:49:32.075Z,1008.56
2022-07-29T09:50:32.075Z,1008.51
2022-07-29T09:51:38.234Z,1008.53
2022-07-29T09:52:33.079Z,1008.54
2022-07-29T09:53:32.046Z,1008.57
2022-07-29T09:54:32.027Z,1008.54
2022-07-29T09:55:32.028Z,1008.57
2022-07-29T09:56:32.018Z,1008.60
2022-07-29T09:57:31.998Z,1008.60
2022-07-29T09:58:32.019Z,1008.61
2022-07-29T09:59:31.979Z,1008.58
2022-07-29T10:00:32.040Z,1008.57
2022-07-29T10:01:31.964Z,1008.34
2022-07-29T10:02:31.951Z,1008.39
2022-07-29T10:03:32.015Z,1008.48
2022-07-29T10:04:31.936Z,1008.54
2022-07-29T10:05:36.495Z,1008.45
2022-07-29T10:06:32.912Z,1008.39
2022-07-29T10:07:31.912Z,1008.54
2022-07-29T10:08:32.045Z,1008.55
2022-07-29T10:09:31.894Z,1008.47
2022-07-29T10:10:31.884Z,1008.38
2022-07-29T10:11:35.484Z,1008.43
2022-07-29T10:12:32.856Z,1008.44
2022-07-29T10:13:31.856Z,1008.45
2022-07-29T10:14:31.839Z,1008.46
2022-07-29T10:15:31.827Z,1008.63
2022-07-29T10:16:31.890Z,1008.55
2022-07-29T10:17:31.809Z,1008.48
2022-07-29T10:18:31.809Z,1008.42
2022-07-29T10:19:31.789Z,1008.46
2022-07-29T10:20:31.795Z,1008.39
2022-07-29T10:21:35.550Z,1008.41
2022-07-29T10:22:52.348Z,1008.41
2022-07-29T10:23:46.154Z,1008.34
2022-07-29T10:24:32.742Z,1008.36
2022-07-29T10:25:31.732Z,1008.38
2022-07-29T10:26:31.731Z,1008.38
2022-07-29T10:27:32.875Z,1008.37
2022-07-29T10:28:31.715Z,1008.34
2022-07-29T10:29:31.697Z,1008.41
2022-07-29T10:30:31.688Z,1008.36
2022-07-29T10:31:31.736Z,1008.44
2022-07-29T10:32:31.666Z,1008.42
2022-07-29T10:33:31.669Z,1008.43
2022-07-29T10:34:31.647Z,1008.39
2022-07-29T10:35:31.638Z,1008.35
2022-07-29T10:36:31.629Z,1008.21
2022-07-29T10:37:35.945Z,1008.28
2022-07-29T10:38:31.630Z,1008.24
2022-07-29T10:39:41.732Z,1008.24
2022-07-29T10:40:32.600Z,1008.22
2022-07-29T10:41:32.460Z,1008.29
2022-07-29T10:42:34.516Z,1008.21
2022-07-29T10:43:31.875Z,1008.23
2022-07-29T10:44:31.568Z,1008.27
2022-07-29T10:45:31.565Z,1008.47
2022-07-29T10:46:31.593Z,1008.26
2022-07-29T10:47:31.525Z,1008.26
2022-07-29T10:48:31.526Z,1008.46
2022-07-29T10:49:31.530Z,1008.42
2022-07-29T10:50:31.506Z,1008.55
2022-07-29T10:51:31.546Z,1008.23
2022-07-29T10:52:31.482Z,1008.20
2022-07-29T10:53:33.893Z,1008.33
2022-07-29T10:54:31.459Z,1008.35
2022-07-29T10:55:31.458Z,1008.47
2022-07-29T10:56:31.459Z,1008.33
2022-07-29T10:57:53.652Z,1008.26
2022-07-29T10:58:32.431Z,1008.54
2022-07-29T10:59:36.451Z,1008.51
2022-07-29T11:00:32.399Z,1008.29
2022-07-29T11:01:37.504Z,1008.50
2022-07-29T11:02:41.106Z,1008.44
2022-07-29T11:03:32.465Z,1008.25
2022-07-29T11:04:31.363Z,1008.53
2022-07-29T11:05:39.848Z,1008.51
2022-07-29T11:06:32.351Z,1008.24
2022-07-29T11:07:41.598Z,1008.19
2022-07-29T11:08:32.334Z,1008.47
2022-07-29T11:09:37.473Z,1008.35
2022-07-29T11:10:32.306Z,1008.53
2022-07-29T11:11:31.296Z,1008.42
2022-07-29T11:12:31.278Z,1008.41
2022-07-29T11:13:31.277Z,1008.35
2022-07-29T11:14:31.265Z,1008.34
2022-07-29T11:15:32.222Z,1008.38
2022-07-29T11:16:31.249Z,1008.33
2022-07-29T11:17:37.396Z,1008.17
2022-07-29T11:18:32.230Z,1008.32
2022-07-29T11:19:31.210Z,1008.39
2022-07-29T11:20:31.209Z,1008.33
2022-07-29T11:21:35.941Z,1008.49
2022-07-29T11:22:32.189Z,1008.42
2022-07-29T11:23:33.799Z,1008.38
2022-07-29T11:24:31.167Z,1008.41
2022-07-29T11:26:32.145Z,1008.42
2022-07-29T11:27:31.133Z,1008.36
2022-07-29T11:28:31.145Z,1008.36
2022-07-29T11:29:31.126Z,1008.13
2022-07-29T11:30:31.106Z,1008.41
2022-07-29T11:31:31.114Z,1008.22
2022-07-29T11:32:31.087Z,1008.32
2022-07-29T11:33:54.113Z,1008.28
2022-07-29T11:34:32.075Z,1008.18
2022-07-29T11:35:38.135Z,1008.35
2022-07-29T11:36:32.086Z,1008.28
2022-07-29T11:37:31.049Z,1008.26
2022-07-29T11:38:31.870Z,1008.33
2022-07-29T11:39:37.091Z,1008.29
2022-07-29T11:40:32.018Z,1008.12
2022-07-29T11:41:32.626Z,1008.14
2022-07-29T11:42:34.263Z,1008.08
2022-07-29T11:43:31.011Z,1008.09
2022-07-29T11:44:30.983Z,1008.12
2022-07-29T11:45:42.945Z,1008.19
2022-07-29T11:46:31.973Z,1008.39
2022-07-29T11:47:30.972Z,1008.37
2022-07-29T11:48:32.579Z,1008.28
2022-07-29T11:49:31.955Z,1008.34
2022-07-29T11:50:30.936Z,1008.23
2022-07-29T11:51:32.795Z,1008.21
2022-07-29T11:52:30.906Z,1008.33
2022-07-29T11:53:32.485Z,1008.31
2022-07-29T11:54:30.896Z,1008.26
2022-07-29T11:55:32.641Z,1008.26
2022-07-29T11:56:30.878Z,1008.27
2022-07-29T11:58:31.882Z,1008.33
2022-07-29T11:59:33.579Z,1008.33
2022-07-29T12:00:30.830Z,1008.32
2022-07-29T12:01:30.839Z,1008.28
2022-07-29T12:02:37.026Z,1008.08
2022-07-29T12:03:33.490Z,1008.14
2022-07-29T12:04:30.816Z,1008.12
2022-07-29T12:05:36.384Z,1008.19
2022-07-29T12:06:31.775Z,1008.21
2022-07-29T12:07:03.279Z,1008.29